Time;durP1;ratioP1;P1;durP2;ratioP2;P2;SDS_P1;SDS_P2;PMS_P1;PMS_P2;Temp;Humidity;BMP_temperature;BMP_pressure;BME280_temperature;BME280_humidity;BME280_pressure;Samples;Min_cycle;Max_cycle;Signal;HPM_P1;HPM_P2
2022/08/09 00:01:27;;;;;;;8.38;2.85;;;;;;;;;;4944926;28;20619;-69
2022/08/09 00:03:53;;;;;;;9.10;3.20;;;;;;;;;;4948314;28;20050;-69
2022/08/09 00:06:18;;;;;;;8.55;3.10;;;;;;;;;;4947312;28;20054;-72
2022/08/09 00:08:47;;;;;;;8.10;3.05;;;;;;;;;;4948079;28;20063;-68
2022/08/09 00:11:14;;;;;;;6.03;3.13;;;;;;;;;;4954169;28;20141;-69
2022/08/09 00:13:40;;;;;;;6.25;2.88;;;;;;;;;;4951843;28;20047;-69
2022/08/09 00:16:06;;;;;;;5.97;3.15;;;;;;;;;;4956227;28;20062;-69
2022/08/09 00:18:33;;;;;;;8.23;3.13;;;;;;;;;;4953674;28;20253;-69
2022/08/09 00:21:01;;;;;;;6.95;3.30;;;;;;;;;;4954262;28;20432;-70
2022/08/09 00:23:27;;;;;;;7.85;3.00;;;;;;;;;;4956725;28;20051;-67
2022/08/09 00:25:53;;;;;;;5.78;2.65;;;;;;;;;;4956702;28;20054;-69
2022/08/09 00:28:18;;;;;;;5.40;2.55;;;;;;;;;;4955370;28;20073;-69
2022/08/09 00:30:44;;;;;;;8.65;2.80;;;;;;;;;;4956275;28;20055;-69
2022/08/09 00:33:10;;;;;;;12.50;3.25;;;;;;;;;;4955456;28;20390;-69
2022/08/09 00:35:36;;;;;;;6.82;3.17;;;;;;;;;;4954042;28;20158;-68
2022/08/09 00:38:02;;;;;;;9.85;3.20;;;;;;;;;;4951662;28;20086;-69
2022/08/09 00:40:27;;;;;;;6.00;2.75;;;;;;;;;;4952248;28;20042;-68
2022/08/09 00:42:53;;;;;;;4.97;2.63;;;;;;;;;;4957963;28;20411;-70
2022/08/09 00:45:19;;;;;;;7.20;2.60;;;;;;;;;;4957917;28;20527;-68
2022/08/09 00:47:45;;;;;;;7.20;3.10;;;;;;;;;;4959115;28;20057;-69
2022/08/09 00:50:11;;;;;;;6.75;3.00;;;;;;;;;;4963195;28;20073;-68
2022/08/09 00:52:37;;;;;;;6.70;2.65;;;;;;;;;;4964268;28;20038;-67
2022/08/09 00:55:03;;;;;;;6.90;2.90;;;;;;;;;;4963018;28;20051;-67
2022/08/09 00:57:30;;;;;;;6.57;2.97;;;;;;;;;;4967290;28;20109;-67
2022/08/09 00:59:56;;;;;;;8.77;3.00;;;;;;;;;;4967310;28;20050;-68
2022/08/09 01:02:27;;;;;;;7.93;2.55;;;;;;;;;;4964711;28;20202;-67
2022/08/09 01:05:04;;;;;;;7.78;2.72;;;;;;;;;;4972270;28;20058;-69
2022/08/09 01:07:40;;;;;;;7.45;2.67;;;;;;;;;;4964922;28;20101;-69
2022/08/09 01:10:19;;;;;;;4.80;2.53;;;;;;;;;;4961029;28;20047;-66
2022/08/09 01:12:55;;;;;;;6.15;2.67;;;;;;;;;;4966161;28;20409;-68
2022/08/09 01:15:26;;;;;;;8.60;2.85;;;;;;;;;;4965384;28;20157;-69
2022/08/09 01:18:06;;;;;;;5.40;2.92;;;;;;;;;;4968876;28;20053;-69
2022/08/09 01:20:48;;;;;;;11.23;3.15;;;;;;;;;;4968281;28;20053;-69
2022/08/09 01:23:21;;;;;;;5.05;3.00;;;;;;;;;;4983325;28;20064;-72
2022/08/09 01:26:06;;;;;;;9.57;2.88;;;;;;;;;;4968060;28;20130;-68
2022/08/09 01:28:34;;;;;;;8.07;3.17;;;;;;;;;;4970652;28;20046;-68
2022/08/09 01:31:03;;;;;;;6.60;3.10;;;;;;;;;;4965905;28;20047;-69
2022/08/09 01:33:35;;;;;;;5.53;2.70;;;;;;;;;;4955505;28;20125;-69
2022/08/09 01:36:07;;;;;;;6.63;2.77;;;;;;;;;;4956827;28;20500;-70
2022/08/09 01:38:41;;;;;;;4.53;2.70;;;;;;;;;;4957422;28;20504;-67
2022/08/09 01:41:22;;;;;;;7.80;2.78;;;;;;;;;;4956074;28;20440;-67
2022/08/09 01:43:54;;;;;;;5.95;2.80;;;;;;;;;;4956052;28;20042;-68
2022/08/09 01:46:24;;;;;;;5.63;2.60;;;;;;;;;;4954544;28;20516;-67
2022/08/09 01:48:52;;;;;;;6.28;2.88;;;;;;;;;;4955417;28;20410;-67
2022/08/09 01:51:19;;;;;;;5.97;2.70;;;;;;;;;;4949985;28;20591;-68
2022/08/09 01:53:46;;;;;;;8.48;2.80;;;;;;;;;;4956047;28;20057;-68
2022/08/09 01:56:13;;;;;;;4.63;2.70;;;;;;;;;;4959397;28;20134;-69
2022/08/09 01:58:40;;;;;;;8.48;2.75;;;;;;;;;;4953518;28;20139;-69
2022/08/09 02:01:07;;;;;;;5.38;2.70;;;;;;;;;;4954357;28;20139;-68
2022/08/09 02:03:35;;;;;;;4.90;2.55;;;;;;;;;;4953378;28;20043;-67
2022/08/09 02:06:03;;;;;;;5.95;2.53;;;;;;;;;;4953738;28;20413;-68
2022/08/09 02:08:31;;;;;;;4.95;2.83;;;;;;;;;;4956733;28;20051;-69
2022/08/09 02:10:59;;;;;;;5.93;2.70;;;;;;;;;;4952257;28;20043;-68
2022/08/09 02:13:26;;;;;;;4.25;2.58;;;;;;;;;;4956398;28;20055;-69
2022/08/09 02:15:54;;;;;;;5.90;2.80;;;;;;;;;;4950503;28;20108;-68
2022/08/09 02:18:25;;;;;;;6.75;2.92;;;;;;;;;;4955061;28;20606;-67
2022/08/09 02:20:56;;;;;;;7.47;3.03;;;;;;;;;;4951214;28;20051;-67
2022/08/09 02:23:35;;;;;;;5.18;3.00;;;;;;;;;;4955405;28;20141;-68
2022/08/09 02:26:02;;;;;;;7.93;3.15;;;;;;;;;;4976991;28;20129;-69
2022/08/09 02:28:37;;;;;;;9.70;3.17;;;;;;;;;;4961443;28;20062;-69
2022/08/09 02:31:07;;;;;;;4.53;2.70;;;;;;;;;;4952465;28;20051;-67
2022/08/09 02:33:42;;;;;;;7.80;3.08;;;;;;;;;;4950473;28;20533;-70
2022/08/09 02:36:14;;;;;;;11.45;2.92;;;;;;;;;;4952949;28;20170;-71
2022/08/09 02:38:48;;;;;;;9.45;3.35;;;;;;;;;;4953906;28;20571;-67
2022/08/09 02:41:22;;;;;;;9.13;3.33;;;;;;;;;;4952438;28;20051;-70
2022/08/09 02:43:52;;;;;;;5.38;2.88;;;;;;;;;;4958238;28;20715;-68
2022/08/09 02:46:17;;;;;;;7.68;3.00;;;;;;;;;;4957598;28;20791;-68
2022/08/09 02:48:45;;;;;;;9.20;3.10;;;;;;;;;;4956105;28;20051;-73
2022/08/09 02:51:17;;;;;;;9.45;3.28;;;;;;;;;;4958093;28;20394;-69
2022/08/09 02:53:50;;;;;;;7.82;3.03;;;;;;;;;;4961206;28;20082;-68
2022/08/09 02:56:19;;;;;;;6.35;3.42;;;;;;;;;;4959307;28;20059;-66
2022/08/09 02:58:46;;;;;;;5.20;3.28;;;;;;;;;;4956035;28;20150;-68
2022/08/09 03:01:14;;;;;;;7.05;2.90;;;;;;;;;;4957520;28;20102;-67
2022/08/09 03:03:41;;;;;;;6.47;3.03;;;;;;;;;;4960650;28;20053;-67
2022/08/09 03:06:13;;;;;;;9.52;3.20;;;;;;;;;;4958973;28;20055;-68
2022/08/09 03:08:43;;;;;;;7.85;3.10;;;;;;;;;;4961147;28;20114;-67
2022/08/09 03:11:16;;;;;;;6.43;3.40;;;;;;;;;;4948106;28;20139;-71
2022/08/09 03:13:45;;;;;;;7.78;3.15;;;;;;;;;;4950075;28;20497;-68
2022/08/09 03:16:13;;;;;;;5.68;2.70;;;;;;;;;;4951494;28;20051;-66
2022/08/09 03:18:40;;;;;;;4.53;2.97;;;;;;;;;;4945963;28;20059;-70
2022/08/09 03:21:08;;;;;;;10.32;3.38;;;;;;;;;;4951891;28;20058;-69
2022/08/09 03:23:34;;;;;;;5.25;2.90;;;;;;;;;;4959287;28;20051;-66
2022/08/09 03:26:00;;;;;;;8.10;3.45;;;;;;;;;;4956102;28;20435;-68
2022/08/09 03:28:27;;;;;;;8.05;3.22;;;;;;;;;;4958772;28;20416;-66
2022/08/09 03:30:54;;;;;;;6.43;3.38;;;;;;;;;;4952470;28;20047;-68
2022/08/09 03:33:20;;;;;;;9.50;2.97;;;;;;;;;;4957239;28;20070;-67
2022/08/09 03:35:49;;;;;;;7.50;3.42;;;;;;;;;;4954760;28;20105;-68
2022/08/09 03:38:16;;;;;;;8.30;3.65;;;;;;;;;;4951583;28;20576;-66
2022/08/09 03:40:41;;;;;;;7.78;3.17;;;;;;;;;;4953436;28;20108;-67
2022/08/09 03:43:07;;;;;;;8.68;2.95;;;;;;;;;;4953535;28;20055;-68
2022/08/09 03:45:35;;;;;;;6.13;3.08;;;;;;;;;;4953698;28;20059;-68
2022/08/09 03:48:02;;;;;;;9.07;3.25;;;;;;;;;;4951937;28;20059;-67
2022/08/09 03:50:29;;;;;;;7.03;2.95;;;;;;;;;;4954123;28;20110;-69
2022/08/09 03:52:59;;;;;;;8.40;3.22;;;;;;;;;;4960483;28;20050;-68
2022/08/09 03:55:26;;;;;;;11.98;3.30;;;;;;;;;;4954933;28;20137;-68
2022/08/09 03:57:52;;;;;;;3.78;3.03;;;;;;;;;;4957772;28;20142;-67
2022/08/09 04:00:19;;;;;;;10.20;3.83;;;;;;;;;;4952161;28;20059;-68
2022/08/09 04:02:45;;;;;;;12.40;3.10;;;;;;;;;;4956869;28;20057;-69
2022/08/09 04:05:12;;;;;;;7.45;3.20;;;;;;;;;;4954319;28;20498;-67
2022/08/09 04:07:38;;;;;;;12.23;3.30;;;;;;;;;;4954982;28;20382;-69
2022/08/09 04:10:04;;;;;;;8.80;3.55;;;;;;;;;;4953430;28;20054;-69
2022/08/09 04:12:51;;;;;;;9.98;3.40;;;;;;;;;;4952236;28;20149;-68
2022/08/09 04:15:22;;;;;;;10.63;3.53;;;;;;;;;;4951908;28;20071;-67
2022/08/09 04:17:47;;;;;;;8.02;3.45;;;;;;;;;;4953860;28;20336;-68
2022/08/09 04:20:14;;;;;;;10.85;3.80;;;;;;;;;;4952959;28;20138;-68
2022/08/09 04:22:42;;;;;;;8.75;3.25;;;;;;;;;;4953535;28;20607;-69
2022/08/09 04:25:09;;;;;;;8.98;3.55;;;;;;;;;;4956007;28;20058;-68
2022/08/09 04:27:39;;;;;;;9.40;3.42;;;;;;;;;;4958750;28;20043;-67
2022/08/09 04:30:11;;;;;;;5.93;3.60;;;;;;;;;;4955762;28;20220;-68
2022/08/09 04:32:37;;;;;;;9.57;3.50;;;;;;;;;;4955541;28;20052;-67
2022/08/09 04:35:06;;;;;;;9.05;2.95;;;;;;;;;;4956807;28;20074;-68
2022/08/09 04:37:32;;;;;;;8.73;3.03;;;;;;;;;;4954973;28;20057;-68
2022/08/09 04:39:58;;;;;;;8.90;3.40;;;;;;;;;;4949621;28;20055;-68
2022/08/09 04:42:28;;;;;;;8.63;3.63;;;;;;;;;;4953894;28;20051;-67
2022/08/09 04:44:58;;;;;;;8.30;3.60;;;;;;;;;;4956282;28;20051;-67
2022/08/09 04:47:25;;;;;;;8.25;3.63;;;;;;;;;;4954149;28;20061;-68
2022/08/09 04:49:51;;;;;;;8.32;3.75;;;;;;;;;;4954203;28;20134;-67
2022/08/09 04:52:18;;;;;;;9.30;3.42;;;;;;;;;;4951220;28;20055;-67
2022/08/09 04:54:44;;;;;;;8.27;3.65;;;;;;;;;;4954824;28;20055;-66
2022/08/09 04:57:10;;;;;;;9.90;3.47;;;;;;;;;;4951974;28;20066;-67
2022/08/09 04:59:36;;;;;;;12.85;3.75;;;;;;;;;;4957920;28;20448;-66
2022/08/09 05:02:02;;;;;;;13.23;3.78;;;;;;;;;;4955894;28;20054;-70
2022/08/09 05:04:28;;;;;;;9.05;3.30;;;;;;;;;;4950824;28;20109;-67
2022/08/09 05:06:54;;;;;;;8.35;3.03;;;;;;;;;;4951526;28;20057;-67
2022/08/09 05:09:20;;;;;;;10.00;3.28;;;;;;;;;;4951756;28;20051;-67
2022/08/09 05:11:46;;;;;;;8.50;3.38;;;;;;;;;;4953233;28;20412;-66
2022/08/09 05:14:12;;;;;;;11.00;3.45;;;;;;;;;;4952550;28;20057;-66
2022/08/09 05:16:38;;;;;;;5.43;3.63;;;;;;;;;;4951979;28;20043;-69
2022/08/09 05:19:04;;;;;;;7.15;3.25;;;;;;;;;;4952585;28;20134;-69
2022/08/09 05:21:31;;;;;;;12.40;3.67;;;;;;;;;;4949215;28;20047;-71
2022/08/09 05:23:57;;;;;;;7.18;3.75;;;;;;;;;;4954336;28;20102;-67
2022/08/09 05:26:23;;;;;;;8.00;3.28;;;;;;;;;;4951977;28;20976;-68
2022/08/09 05:28:49;;;;;;;7.30;3.72;;;;;;;;;;4954429;28;20611;-67
2022/08/09 05:31:15;;;;;;;7.05;3.50;;;;;;;;;;4952226;28;21244;-67
2022/08/09 05:33:40;;;;;;;7.45;3.38;;;;;;;;;;4964984;28;20077;-68
2022/08/09 05:36:06;;;;;;;9.23;3.42;;;;;;;;;;4952826;28;20512;-68
2022/08/09 05:38:32;;;;;;;7.18;3.25;;;;;;;;;;4951909;28;20133;-67
2022/08/09 05:40:59;;;;;;;12.07;3.92;;;;;;;;;;4955509;28;20066;-67
2022/08/09 05:43:25;;;;;;;6.85;3.55;;;;;;;;;;4952605;28;20058;-67
2022/08/09 05:45:51;;;;;;;8.40;3.47;;;;;;;;;;4957513;28;20043;-68
2022/08/09 05:48:17;;;;;;;11.32;3.63;;;;;;;;;;4956427;28;20137;-69
2022/08/09 05:50:43;;;;;;;6.35;3.42;;;;;;;;;;4952372;28;20130;-67
2022/08/09 05:53:09;;;;;;;9.90;3.95;;;;;;;;;;4956182;28;20169;-67
2022/08/09 05:55:35;;;;;;;9.43;3.60;;;;;;;;;;4955722;28;20477;-68
2022/08/09 05:58:01;;;;;;;12.05;4.07;;;;;;;;;;4954499;28;20054;-69
2022/08/09 06:00:29;;;;;;;10.35;3.72;;;;;;;;;;4952836;28;20058;-67
2022/08/09 06:02:57;;;;;;;10.18;3.80;;;;;;;;;;4954131;28;20104;-67
2022/08/09 06:05:29;;;;;;;8.43;3.40;;;;;;;;;;4952007;28;20066;-68
2022/08/09 06:07:54;;;;;;;9.95;4.22;;;;;;;;;;4956406;28;20063;-68
2022/08/09 06:10:20;;;;;;;8.05;3.72;;;;;;;;;;4951630;28;20070;-70
2022/08/09 06:12:46;;;;;;;8.88;3.80;;;;;;;;;;4954992;28;20061;-69
2022/08/09 06:15:12;;;;;;;8.50;3.40;;;;;;;;;;4956770;28;20406;-66
2022/08/09 06:17:38;;;;;;;9.80;4.13;;;;;;;;;;4958510;28;20127;-68
2022/08/09 06:20:04;;;;;;;8.60;3.50;;;;;;;;;;4951635;28;20063;-67
2022/08/09 06:22:30;;;;;;;12.70;3.97;;;;;;;;;;4950911;28;20525;-68
2022/08/09 06:24:56;;;;;;;8.88;3.60;;;;;;;;;;4953253;28;20050;-68
2022/08/09 06:27:22;;;;;;;6.57;3.40;;;;;;;;;;4948681;28;20085;-69
2022/08/09 06:29:48;;;;;;;11.30;3.85;;;;;;;;;;4950602;28;20055;-66
2022/08/09 06:32:14;;;;;;;13.10;3.97;;;;;;;;;;4950773;28;20055;-67
2022/08/09 06:34:39;;;;;;;13.32;3.85;;;;;;;;;;4960316;28;20183;-67
2022/08/09 06:37:05;;;;;;;11.95;4.45;;;;;;;;;;4955563;28;20664;-70
2022/08/09 06:39:31;;;;;;;10.20;4.03;;;;;;;;;;4958780;28;20807;-69
2022/08/09 06:41:57;;;;;;;13.07;4.13;;;;;;;;;;4958456;28;20051;-67
2022/08/09 06:44:23;;;;;;;22.02;4.85;;;;;;;;;;4956556;28;20085;-68
2022/08/09 06:46:50;;;;;;;25.85;4.55;;;;;;;;;;4956414;28;20059;-69
2022/08/09 06:49:16;;;;;;;17.35;4.47;;;;;;;;;;4957251;28;20079;-69
2022/08/09 06:51:42;;;;;;;11.93;4.05;;;;;;;;;;4954938;28;20047;-68
2022/08/09 06:54:08;;;;;;;8.77;3.97;;;;;;;;;;4958665;28;20046;-70
2022/08/09 06:56:34;;;;;;;8.93;3.72;;;;;;;;;;4954208;28;20065;-67
2022/08/09 06:59:00;;;;;;;10.77;3.80;;;;;;;;;;4959605;28;20149;-69
2022/08/09 07:01:26;;;;;;;21.05;4.35;;;;;;;;;;4956128;28;20055;-72
2022/08/09 07:03:51;;;;;;;15.57;4.10;;;;;;;;;;4961173;28;20050;-68
2022/08/09 07:06:17;;;;;;;16.77;3.97;;;;;;;;;;4959284;28;20409;-69
2022/08/09 07:08:43;;;;;;;17.77;4.18;;;;;;;;;;4956807;28;20304;-67
2022/08/09 07:11:09;;;;;;;25.77;4.38;;;;;;;;;;4953336;28;20051;-67
2022/08/09 07:13:35;;;;;;;18.63;4.50;;;;;;;;;;4957961;28;20042;-66
2022/08/09 07:16:01;;;;;;;12.07;3.85;;;;;;;;;;4960502;28;20055;-67
2022/08/09 07:18:27;;;;;;;22.75;4.20;;;;;;;;;;4959282;28;20055;-68
2022/08/09 07:20:52;;;;;;;21.98;4.57;;;;;;;;;;4951841;28;20637;-68
2022/08/09 07:23:18;;;;;;;18.60;4.57;;;;;;;;;;4958110;28;20054;-68
2022/08/09 07:25:44;;;;;;;14.48;3.70;;;;;;;;;;4956381;28;20385;-68
2022/08/09 07:28:11;;;;;;;13.88;3.92;;;;;;;;;;4958225;28;20035;-69
2022/08/09 07:30:38;;;;;;;16.45;3.83;;;;;;;;;;4957161;28;20509;-68
2022/08/09 07:33:03;;;;;;;12.65;4.15;;;;;;;;;;4956677;28;20584;-67
2022/08/09 07:35:29;;;;;;;9.82;3.83;;;;;;;;;;4952814;28;20055;-69
2022/08/09 07:37:56;;;;;;;14.98;4.10;;;;;;;;;;4954526;28;20059;-68
2022/08/09 07:40:22;;;;;;;20.05;4.38;;;;;;;;;;4950497;28;20051;-69
2022/08/09 07:42:52;;;;;;;10.35;3.63;;;;;;;;;;4957069;28;20113;-68
2022/08/09 07:45:24;;;;;;;18.30;4.40;;;;;;;;;;4955434;28;20115;-69
2022/08/09 07:47:53;;;;;;;11.50;3.78;;;;;;;;;;4955268;28;20090;-68
2022/08/09 07:50:21;;;;;;;8.07;3.65;;;;;;;;;;4952334;28;20393;-69
2022/08/09 07:52:47;;;;;;;10.43;3.67;;;;;;;;;;4955445;28;20047;-69
2022/08/09 07:55:14;;;;;;;12.60;3.75;;;;;;;;;;4958139;28;20069;-69
2022/08/09 07:57:40;;;;;;;12.90;3.25;;;;;;;;;;4957049;28;20077;-68
2022/08/09 08:00:06;;;;;;;10.30;3.55;;;;;;;;;;4954943;28;20655;-70
2022/08/09 08:02:32;;;;;;;14.07;3.63;;;;;;;;;;4956889;28;20046;-69
2022/08/09 08:04:58;;;;;;;10.02;3.75;;;;;;;;;;4956260;28;20067;-70
2022/08/09 08:07:24;;;;;;;10.27;3.20;;;;;;;;;;4952823;28;20489;-70
2022/08/09 08:09:51;;;;;;;13.23;3.88;;;;;;;;;;4951549;28;20058;-72
2022/08/09 08:12:17;;;;;;;6.95;3.13;;;;;;;;;;4956149;28;20049;-68
2022/08/09 08:14:43;;;;;;;11.10;3.22;;;;;;;;;;4958021;28;20070;-68
2022/08/09 08:17:09;;;;;;;11.50;3.47;;;;;;;;;;4960808;28;20047;-71
2022/08/09 08:19:35;;;;;;;11.00;3.20;;;;;;;;;;4955539;28;20741;-68
2022/08/09 08:22:02;;;;;;;8.13;3.63;;;;;;;;;;4959880;28;20580;-70
2022/08/09 08:24:28;;;;;;;11.13;3.45;;;;;;;;;;4954290;28;20512;-67
2022/08/09 08:26:54;;;;;;;9.30;3.47;;;;;;;;;;4959847;28;20051;-69
2022/08/09 08:29:20;;;;;;;10.75;3.63;;;;;;;;;;4955609;28;20062;-68
2022/08/09 08:31:46;;;;;;;11.52;3.30;;;;;;;;;;4955378;28;20405;-69
2022/08/09 08:34:12;;;;;;;9.88;3.60;;;;;;;;;;4959812;28;20058;-71
2022/08/09 08:36:38;;;;;;;6.85;2.97;;;;;;;;;;4958300;28;20500;-70
2022/08/09 08:39:04;;;;;;;8.88;3.50;;;;;;;;;;4958736;28;20058;-71
2022/08/09 08:41:31;;;;;;;6.45;2.97;;;;;;;;;;4952719;28;20074;-68
2022/08/09 08:44:00;;;;;;;12.55;3.38;;;;;;;;;;4955043;28;20748;-68
2022/08/09 08:46:33;;;;;;;10.40;3.22;;;;;;;;;;4956424;28;20136;-69
2022/08/09 08:48:59;;;;;;;9.90;3.60;;;;;;;;;;4956104;28;20055;-69
2022/08/09 08:51:25;;;;;;;5.50;3.22;;;;;;;;;;4954182;28;20134;-70
2022/08/09 08:53:52;;;;;;;13.25;3.20;;;;;;;;;;4951978;28;20046;-69
2022/08/09 08:56:21;;;;;;;11.75;3.40;;;;;;;;;;4954756;28;20666;-71
2022/08/09 08:58:48;;;;;;;12.05;3.50;;;;;;;;;;4952172;28;20496;-70
2022/08/09 09:01:18;;;;;;;9.13;3.13;;;;;;;;;;4954391;28;20054;-68
2022/08/09 09:03:46;;;;;;;10.48;3.17;;;;;;;;;;4958345;28;20050;-70
2022/08/09 09:06:13;;;;;;;14.48;3.83;;;;;;;;;;4951792;28;20070;-71
2022/08/09 09:08:41;;;;;;;8.35;3.42;;;;;;;;;;4959385;28;20699;-68
2022/08/09 09:11:09;;;;;;;9.13;3.60;;;;;;;;;;4950914;28;20125;-69
2022/08/09 09:13:38;;;;;;;6.70;3.53;;;;;;;;;;4958446;28;20145;-70
2022/08/09 09:16:04;;;;;;;10.25;3.55;;;;;;;;;;4955853;28;20124;-71
2022/08/09 09:18:31;;;;;;;6.15;3.00;;;;;;;;;;4957366;28;20059;-70
2022/08/09 09:20:57;;;;;;;9.23;3.10;;;;;;;;;;4954300;28;20051;-69
2022/08/09 09:23:49;;;;;;;9.30;3.28;;;;;;;;;;4956790;28;20058;-67
2022/08/09 09:26:15;;;;;;;9.57;3.10;;;;;;;;;;4953529;28;20074;-68
2022/08/09 09:28:46;;;;;;;9.80;3.05;;;;;;;;;;4954028;28;20055;-67
2022/08/09 09:31:14;;;;;;;10.68;3.47;;;;;;;;;;4950734;28;20072;-69
2022/08/09 09:33:40;;;;;;;12.75;3.50;;;;;;;;;;4948420;28;20173;-70
2022/08/09 09:36:08;;;;;;;7.97;3.08;;;;;;;;;;4951847;28;20889;-70
2022/08/09 09:38:55;;;;;;;10.30;3.08;;;;;;;;;;4946306;28;20137;-72
2022/08/09 09:41:25;;;;;;;12.30;3.13;;;;;;;;;;4946269;28;20446;-69
2022/08/09 09:43:56;;;;;;;9.65;3.55;;;;;;;;;;4952929;28;20098;-72
2022/08/09 09:46:36;;;;;;;13.85;3.58;;;;;;;;;;4950042;28;20127;-70
2022/08/09 09:49:04;;;;;;;6.07;2.92;;;;;;;;;;4953905;28;20493;-71
2022/08/09 09:51:31;;;;;;;8.80;3.00;;;;;;;;;;4949969;28;20059;-71
2022/08/09 09:54:08;;;;;;;8.15;3.30;;;;;;;;;;4954556;28;20066;-69
2022/08/09 09:56:39;;;;;;;6.80;3.28;;;;;;;;;;4952280;28;20051;-69
2022/08/09 09:59:07;;;;;;;8.15;3.15;;;;;;;;;;4951878;28;20101;-70
2022/08/09 10:01:32;;;;;;;8.15;3.47;;;;;;;;;;4956911;28;20122;-69
2022/08/09 10:03:59;;;;;;;7.18;3.10;;;;;;;;;;4955894;28;20070;-72
2022/08/09 10:06:41;;;;;;;11.68;3.30;;;;;;;;;;4953299;28;20394;-71
2022/08/09 10:09:07;;;;;;;10.02;2.88;;;;;;;;;;4953872;28;20062;-70
2022/08/09 10:11:34;;;;;;;8.10;3.50;;;;;;;;;;4955721;28;20803;-71
2022/08/09 10:14:01;;;;;;;7.97;3.13;;;;;;;;;;4957291;28;20149;-72
2022/08/09 10:16:36;;;;;;;10.98;3.33;;;;;;;;;;4955479;28;20055;-72
2022/08/09 10:19:03;;;;;;;5.22;2.97;;;;;;;;;;4957255;28;20093;-76
2022/08/09 10:21:30;;;;;;;10.13;3.08;;;;;;;;;;4954500;28;20050;-72
2022/08/09 10:24:00;;;;;;;7.13;3.13;;;;;;;;;;4955428;28;20086;-71
2022/08/09 10:26:27;;;;;;;9.85;3.42;;;;;;;;;;4955406;28;20053;-69
2022/08/09 10:28:54;;;;;;;8.00;3.42;;;;;;;;;;4954786;28;20047;-72
2022/08/09 10:31:20;;;;;;;8.30;3.33;;;;;;;;;;4954803;28;20349;-72
2022/08/09 10:33:46;;;;;;;10.50;4.82;;;;;;;;;;4949627;28;20066;-69
2022/08/09 10:36:14;;;;;;;8.15;3.30;;;;;;;;;;4953358;28;20051;-73
2022/08/09 10:38:43;;;;;;;9.25;3.20;;;;;;;;;;4952178;28;20055;-70
2022/08/09 10:41:09;;;;;;;7.82;2.80;;;;;;;;;;4953307;28;20058;-72
2022/08/09 10:43:36;;;;;;;8.18;2.80;;;;;;;;;;4950918;28;20059;-73
2022/08/09 10:46:41;;;;;;;9.70;3.35;;;;;;;;;;4950861;28;20138;-70
2022/08/09 10:49:10;;;;;;;7.97;3.42;;;;;;;;;;4951291;28;20063;-74
2022/08/09 10:51:59;;;;;;;6.68;3.00;;;;;;;;;;4954202;28;20186;-72
2022/08/09 10:54:25;;;;;;;5.63;3.08;;;;;;;;;;4952251;28;20070;-72
2022/08/09 10:57:15;;;;;;;6.95;3.03;;;;;;;;;;4953657;28;20052;-71
2022/08/09 10:59:43;;;;;;;5.45;2.80;;;;;;;;;;4957373;28;20151;-69
2022/08/09 11:02:35;;;;;;;5.30;2.70;;;;;;;;;;4958508;28;20047;-71
2022/08/09 11:05:16;;;;;;;6.22;2.63;;;;;;;;;;4960033;28;20057;-71
2022/08/09 11:07:42;;;;;;;9.75;3.05;;;;;;;;;;4959024;28;20582;-71
2022/08/09 11:10:08;;;;;;;6.30;3.15;;;;;;;;;;4955125;28;20493;-73
2022/08/09 11:12:34;;;;;;;8.27;3.03;;;;;;;;;;4958151;28;20059;-72
2022/08/09 11:15:23;;;;;;;6.93;2.80;;;;;;;;;;4959036;28;22455;-74
2022/08/09 11:17:51;;;;;;;8.20;3.08;;;;;;;;;;4959541;28;20504;-76
2022/08/09 11:20:21;;;;;;;6.18;2.70;;;;;;;;;;4957578;28;20109;-72
2022/08/09 11:22:47;;;;;;;8.35;2.75;;;;;;;;;;4956611;28;20055;-72
2022/08/09 11:25:14;;;;;;;8.65;2.90;;;;;;;;;;4953618;28;20444;-72
2022/08/09 11:27:54;;;;;;;5.43;2.72;;;;;;;;;;4957367;28;20502;-72
2022/08/09 11:30:26;;;;;;;7.07;2.83;;;;;;;;;;4957444;28;20062;-71
2022/08/09 11:33:29;;;;;;;9.00;3.10;;;;;;;;;;4954248;28;20177;-70
2022/08/09 11:35:57;;;;;;;6.07;2.55;;;;;;;;;;4960007;28;20059;-73
2022/08/09 11:38:29;;;;;;;6.90;2.80;;;;;;;;;;4958758;28;20408;-73
2022/08/09 11:40:55;;;;;;;4.90;2.60;;;;;;;;;;4952848;28;20054;-72
2022/08/09 11:43:29;;;;;;;4.80;3.00;;;;;;;;;;4955096;28;20069;-71
2022/08/09 11:46:02;;;;;;;6.63;2.35;;;;;;;;;;4955432;28;20134;-73
2022/08/09 11:48:31;;;;;;;5.50;2.80;;;;;;;;;;4954279;28;20059;-73
2022/08/09 11:50:57;;;;;;;7.93;2.90;;;;;;;;;;4954624;28;20449;-75
2022/08/09 11:53:35;;;;;;;4.43;2.75;;;;;;;;;;4961279;28;20051;-73
2022/08/09 11:56:13;;;;;;;5.68;2.75;;;;;;;;;;4964308;28;20059;-69
2022/08/09 11:58:48;;;;;;;13.07;2.90;;;;;;;;;;4959431;28;20043;-74
2022/08/09 12:01:16;;;;;;;7.85;2.33;;;;;;;;;;4962373;28;20061;-70
2022/08/09 12:03:44;;;;;;;6.95;2.83;;;;;;;;;;4957324;28;20051;-72
2022/08/09 12:06:13;;;;;;;4.65;2.33;;;;;;;;;;4955653;28;20069;-73
2022/08/09 12:08:48;;;;;;;5.45;2.35;;;;;;;;;;4957736;28;20042;-73
2022/08/09 12:11:15;;;;;;;5.55;2.40;;;;;;;;;;4958103;28;20046;-75
2022/08/09 12:13:45;;;;;;;7.55;2.67;;;;;;;;;;4961401;28;20047;-69
2022/08/09 12:16:20;;;;;;;5.75;2.40;;;;;;;;;;4963066;28;20504;-69
2022/08/09 12:18:49;;;;;;;7.15;2.92;;;;;;;;;;4969830;28;20047;-69
2022/08/09 12:21:30;;;;;;;6.05;2.45;;;;;;;;;;4969202;28;20066;-68
2022/08/09 12:23:57;;;;;;;7.95;2.60;;;;;;;;;;4964764;28;20503;-71
2022/08/09 12:26:23;;;;;;;13.32;2.80;;;;;;;;;;4968143;28;20043;-68
2022/08/09 12:28:52;;;;;;;3.90;2.33;;;;;;;;;;4967623;28;20055;-71
2022/08/09 12:31:28;;;;;;;9.77;2.85;;;;;;;;;;4967844;28;20083;-71
2022/08/09 12:33:54;;;;;;;7.32;2.55;;;;;;;;;;4954970;28;20191;-69
2022/08/09 12:36:22;;;;;;;8.02;2.40;;;;;;;;;;4968079;28;20061;-72
2022/08/09 12:38:53;;;;;;;4.90;2.67;;;;;;;;;;4969745;28;20518;-72
2022/08/09 12:41:30;;;;;;;5.07;2.78;;;;;;;;;;4968861;28;20058;-70
2022/08/09 12:43:58;;;;;;;10.38;2.70;;;;;;;;;;4954279;28;20039;-70
2022/08/09 12:46:25;;;;;;;4.10;2.33;;;;;;;;;;4956195;28;20078;-73
2022/08/09 12:48:54;;;;;;;8.60;2.75;;;;;;;;;;4955712;28;20047;-69
2022/08/09 12:51:22;;;;;;;6.85;2.60;;;;;;;;;;4955169;28;20051;-70
2022/08/09 12:53:59;;;;;;;6.75;2.70;;;;;;;;;;4962125;28;20085;-71
2022/08/09 12:56:25;;;;;;;6.93;2.70;;;;;;;;;;4970519;28;20077;-71
2022/08/09 12:59:10;;;;;;;5.70;2.70;;;;;;;;;;4969260;28;20066;-67
2022/08/09 13:01:39;;;;;;;8.65;2.58;;;;;;;;;;4964387;28;20073;-70
2022/08/09 13:04:06;;;;;;;14.52;2.78;;;;;;;;;;4954693;28;20086;-69
2022/08/09 13:06:38;;;;;;;6.22;2.38;;;;;;;;;;4954141;28;20054;-71
2022/08/09 13:09:05;;;;;;;6.20;2.35;;;;;;;;;;4952495;28;20051;-67
2022/08/09 13:11:37;;;;;;;5.85;2.50;;;;;;;;;;4953082;28;20046;-71
2022/08/09 13:14:06;;;;;;;8.50;2.38;;;;;;;;;;4952275;28;20053;-70
2022/08/09 13:16:40;;;;;;;5.88;2.10;;;;;;;;;;4940232;28;20133;-73
2022/08/09 13:19:06;;;;;;;;;;;;;;;;;;4952766;28;20606;-72
2022/08/09 13:21:32;;;;;;;5.45;2.60;;;;;;;;;;4952685;28;19926;-69
2022/08/09 13:24:09;;;;;;;7.00;2.70;;;;;;;;;;4952856;28;20797;-70
2022/08/09 13:26:46;;;;;;;5.70;2.70;;;;;;;;;;4946240;28;20043;-71
2022/08/09 13:29:14;;;;;;;4.18;2.25;;;;;;;;;;4949446;28;20061;-69
2022/08/09 13:31:56;;;;;;;7.32;2.53;;;;;;;;;;4945150;28;20074;-72
2022/08/09 13:34:27;;;;;;;6.10;2.40;;;;;;;;;;4944815;28;20497;-71
2022/08/09 13:37:04;;;;;;;6.75;2.60;;;;;;;;;;4943352;28;20078;-72
2022/08/09 13:39:31;;;;;;;7.70;2.35;;;;;;;;;;4945765;28;20083;-69
2022/08/09 13:42:05;;;;;;;8.63;2.78;;;;;;;;;;4944503;28;20054;-72
2022/08/09 13:44:32;;;;;;;6.95;2.30;;;;;;;;;;4942644;28;20058;-72
2022/08/09 13:46:59;;;;;;;8.00;2.90;;;;;;;;;;4942574;28;20476;-72
2022/08/09 13:49:24;;;;;;;9.07;3.10;;;;;;;;;;4947636;28;20082;-69
2022/08/09 13:51:50;;;;;;;7.65;2.60;;;;;;;;;;4946674;28;20509;-71
2022/08/09 13:54:17;;;;;;;5.85;2.83;;;;;;;;;;4944182;28;20057;-71
2022/08/09 13:56:42;;;;;;;8.30;3.20;;;;;;;;;;4942909;28;20560;-70
2022/08/09 13:59:09;;;;;;;10.15;2.60;;;;;;;;;;4942035;28;20073;-72
2022/08/09 14:01:34;;;;;;;10.43;2.75;;;;;;;;;;4944415;28;20059;-71
2022/08/09 14:04:00;;;;;;;10.00;2.80;;;;;;;;;;4943754;28;20081;-70
2022/08/09 14:06:26;;;;;;;8.30;2.53;;;;;;;;;;4941045;28;20078;-70
2022/08/09 14:08:53;;;;;;;11.23;2.45;;;;;;;;;;4953695;28;20047;-71
2022/08/09 14:11:19;;;;;;;6.20;2.67;;;;;;;;;;4938943;28;20146;-68
2022/08/09 14:13:45;;;;;;;8.15;2.33;;;;;;;;;;4940805;28;20077;-70
2022/08/09 14:16:16;;;;;;;6.53;2.17;;;;;;;;;;4939573;28;21281;-72
2022/08/09 14:18:44;;;;;;;3.83;2.17;;;;;;;;;;4945033;28;20097;-71
2022/08/09 14:21:16;;;;;;;6.72;1.75;;;;;;;;;;4942399;28;20050;-73
2022/08/09 14:23:43;;;;;;;4.78;1.73;;;;;;;;;;4942599;28;20047;-72
2022/08/09 14:26:10;;;;;;;5.90;1.95;;;;;;;;;;4939408;28;20141;-72
2022/08/09 14:28:36;;;;;;;5.68;1.75;;;;;;;;;;4942520;28;20067;-69
2022/08/09 14:31:02;;;;;;;4.57;1.90;;;;;;;;;;4939699;28;20047;-72
2022/08/09 14:33:28;;;;;;;4.45;1.60;;;;;;;;;;4942209;28;20571;-68
2022/08/09 14:35:54;;;;;;;3.78;1.48;;;;;;;;;;4940285;28;20055;-70
2022/08/09 14:38:21;;;;;;;6.85;2.20;;;;;;;;;;4945249;28;20043;-69
2022/08/09 14:40:47;;;;;;;6.40;1.77;;;;;;;;;;4943076;28;20051;-71
2022/08/09 14:43:13;;;;;;;6.90;1.90;;;;;;;;;;4944150;28;20063;-70
2022/08/09 14:45:38;;;;;;;4.93;1.90;;;;;;;;;;4946270;28;20799;-68
2022/08/09 14:48:04;;;;;;;4.75;1.98;;;;;;;;;;4944882;28;20051;-72
2022/08/09 14:50:33;;;;;;;12.65;2.08;;;;;;;;;;4946316;28;20050;-70